createdAt,value
2022-08-23T00:02:47.582Z,98015.06
2022-08-23T00:06:52.116Z,98002.41
2022-08-23T00:10:56.245Z,98013.13
2022-08-23T00:14:58.765Z,98009.03
2022-08-23T00:19:02.759Z,98006.66
2022-08-23T00:23:05.028Z,98006.66
2022-08-23T00:27:18.447Z,98008.72
2022-08-23T00:31:20.797Z,98011.53
2022-08-23T00:35:27.118Z,98003.81
2022-08-23T00:39:31.215Z,98012.03
2022-08-23T00:43:59.088Z,98020.84
2022-08-23T00:48:03.037Z,98011.34
2022-08-23T00:52:24.370Z,98005.66
2022-08-23T00:56:33.674Z,98008.84
2022-08-23T01:00:36.351Z,98005.50
2022-08-23T01:04:45.592Z,97996.78
2022-08-23T01:09:12.284Z,97993.31
2022-08-23T01:13:23.314Z,98000.09
2022-08-23T01:17:50.350Z,97997.25
2022-08-23T01:22:00.626Z,97996.59
2022-08-23T01:26:05.627Z,97995.66
2022-08-23T01:30:18.171Z,98000.72
2022-08-23T01:34:30.484Z,98001.66
2022-08-23T01:38:38.805Z,97997.56
2022-08-23T01:42:41.906Z,98007.84
2022-08-23T01:46:47.258Z,98008.75
2022-08-23T01:50:53.621Z,98010.13
2022-08-23T01:55:00.212Z,98003.50
2022-08-23T01:59:05.229Z,97995.28
2022-08-23T02:03:18.452Z,98002.56
2022-08-23T02:07:27.288Z,98001.56
2022-08-23T02:11:43.561Z,98003.31
2022-08-23T02:15:51.367Z,98007.09
2022-08-23T02:19:55.432Z,98002.81
2022-08-23T02:24:11.732Z,98004.69
2022-08-23T02:28:17.165Z,98005.16
2022-08-23T02:32:20.164Z,97996.31
2022-08-23T02:36:23.346Z,97993.16
2022-08-23T02:40:26.210Z,97993.91
2022-08-23T02:44:31.986Z,97997.22
2022-08-23T02:48:35.064Z,98009.84
2022-08-23T02:52:41.854Z,98008.31
2022-08-23T02:56:49.905Z,98011.13
2022-08-23T03:00:57.522Z,98006.38
2022-08-23T03:05:04.764Z,98011.59
2022-08-23T03:09:10.433Z,98014.44
2022-08-23T03:13:17.402Z,98019.91
2022-08-23T03:21:47.673Z,98014.00
2022-08-23T03:26:03.504Z,98006.56
2022-08-23T03:30:19.128Z,98012.09
2022-08-23T03:34:29.702Z,98010.53
2022-08-23T03:38:36.970Z,98010.34
2022-08-23T03:42:42.645Z,98014.13
2022-08-23T03:46:50.582Z,98027.47
2022-08-23T03:50:54.624Z,98021.81
2022-08-23T03:55:06.551Z,98030.53
2022-08-23T03:59:13.850Z,98031.50
2022-08-23T04:03:21.787Z,98035.91
2022-08-23T04:07:41.249Z,98044.84
2022-08-23T04:11:47.807Z,98039.78
2022-08-23T04:15:55.170Z,98041.06
2022-08-23T04:20:03.574Z,98050.19
2022-08-23T04:24:14.288Z,98052.25
2022-08-23T04:28:31.930Z,98052.56
2022-08-23T04:32:44.395Z,98057.28
2022-08-23T04:36:55.423Z,98075.56
2022-08-23T04:45:46.817Z,98088.69
2022-08-23T04:50:04.274Z,98080.84
2022-08-23T04:54:18.897Z,98090.31
2022-08-23T04:58:58.227Z,98088.97
2022-08-23T05:03:07.416Z,98092.25
2022-08-23T05:07:19.671Z,98091.31
2022-08-23T05:11:38.480Z,98091.28
2022-08-23T05:16:15.386Z,98101.97
2022-08-23T05:20:26.499Z,98107.41
2022-08-23T05:24:29.192Z,98111.16
2022-08-23T05:28:34.688Z,98117.38
2022-08-23T05:32:38.770Z,98112.91
2022-08-23T05:36:48.905Z,98116.22
2022-08-23T05:41:02.428Z,98117.97
2022-08-23T05:45:12.189Z,98120.94
2022-08-23T05:49:19.531Z,98121.50
2022-08-23T05:53:24.487Z,98128.97
2022-08-23T05:57:27.191Z,98128.13
2022-08-23T06:01:30.901Z,98139.38
2022-08-23T06:05:40.884Z,98139.75
2022-08-23T06:09:44.626Z,98137.72
2022-08-23T06:13:50.897Z,98139.47
2022-08-23T06:17:53.088Z,98130.88
2022-08-23T06:21:56.401Z,98139.63
2022-08-23T06:26:14.974Z,98132.28
2022-08-23T06:30:18.870Z,98142.84
2022-08-23T06:34:33.733Z,98140.56
2022-08-23T06:38:43.081Z,98148.16
2022-08-23T06:47:34.744Z,98143.44
2022-08-23T06:51:48.531Z,98145.56
2022-08-23T06:55:54.301Z,98151.84
2022-08-23T07:00:01.875Z,98149.19
2022-08-23T07:04:31.367Z,98157.88
2022-08-23T07:08:51.838Z,98152.56
2022-08-23T07:12:57.484Z,98161.25
2022-08-23T07:17:06.599Z,98160.25
2022-08-23T07:21:09.833Z,98155.94
2022-08-23T07:25:30.115Z,98151.66
2022-08-23T07:29:39.932Z,98163.28
2022-08-23T07:33:46.592Z,98169.38
2022-08-23T07:37:57.596Z,98179.97
2022-08-23T07:42:22.884Z,98166.94
2022-08-23T07:46:29.934Z,98175.13
2022-08-23T07:50:32.173Z,98164.38
2022-08-23T07:54:37.059Z,98172.75
2022-08-23T07:59:01.702Z,98175.19
2022-08-23T08:03:14.939Z,98176.31
2022-08-23T08:07:37.200Z,98164.41
2022-08-23T08:11:42.039Z,98174.84
2022-08-23T08:15:45.082Z,98174.19
2022-08-23T08:20:00.402Z,98164.75
2022-08-23T08:24:14.211Z,98169.09
2022-08-23T08:28:20.711Z,98170.13
2022-08-23T08:32:23.482Z,98161.00
2022-08-23T08:36:35.878Z,98172.81
2022-08-23T08:40:40.975Z,98171.16
2022-08-23T08:44:51.363Z,98160.84
2022-08-23T08:49:01.982Z,98166.28
2022-08-23T08:53:25.435Z,98165.19
2022-08-23T08:57:48.006Z,98178.78
2022-08-23T09:01:53.103Z,98172.31
2022-08-23T09:06:13.791Z,98180.28
2022-08-23T09:10:46.396Z,98179.69
2022-08-23T09:15:09.980Z,98178.75
2022-08-23T09:19:12.547Z,98180.03
2022-08-23T09:23:22.708Z,98189.13
2022-08-23T09:27:28.006Z,98190.13
2022-08-23T09:31:37.303Z,98177.25
2022-08-23T09:35:39.544Z,98188.63
2022-08-23T09:39:53.909Z,98184.81
2022-08-23T09:44:02.981Z,98176.91
2022-08-23T09:48:07.373Z,98176.16
2022-08-23T09:52:22.276Z,98171.78
2022-08-23T09:56:39.499Z,98178.16
2022-08-23T10:00:44.649Z,98176.94
2022-08-23T10:05:06.866Z,98179.66
2022-08-23T10:09:32.958Z,98178.44
2022-08-23T10:13:41.899Z,98175.84
2022-08-23T10:18:16.551Z,98177.03
2022-08-23T10:22:24.541Z,98175.97
2022-08-23T10:27:34.722Z,98175.66
2022-08-23T10:31:43.035Z,98162.84
2022-08-23T10:36:03.762Z,98168.63
2022-08-23T10:40:29.067Z,98165.22
2022-08-23T10:44:33.396Z,98160.94
2022-08-23T10:48:42.297Z,98156.75
2022-08-23T10:52:55.643Z,98158.84
2022-08-23T10:56:58.815Z,98158.47
2022-08-23T11:01:02.980Z,98159.75
2022-08-23T11:05:27.875Z,98159.34
2022-08-23T11:09:58.478Z,98156.25
2022-08-23T11:14:04.187Z,98143.31
2022-08-23T11:18:09.211Z,98155.41
2022-08-23T11:22:22.306Z,98141.38
2022-08-23T11:26:27.908Z,98142.94
2022-08-23T11:30:33.219Z,98136.28
2022-08-23T11:35:05.611Z,98144.47
2022-08-23T11:39:13.810Z,98143.31
2022-08-23T11:43:43.541Z,98148.41
2022-08-23T11:47:50.389Z,98148.41
2022-08-23T11:52:20.606Z,98148.72
2022-08-23T11:57:07.630Z,98160.78
2022-08-23T12:01:12.550Z,98156.81
2022-08-23T12:05:44.730Z,98140.50
2022-08-23T12:09:52.361Z,98148.41
2022-08-23T12:13:54.467Z,98144.50
2022-08-23T12:18:10.093Z,98146.06
2022-08-23T12:22:22.146Z,98149.09
2022-08-23T12:26:54.398Z,98148.69
2022-08-23T12:31:47.137Z,98141.94
2022-08-23T12:35:49.256Z,98145.13
2022-08-23T12:39:56.127Z,98135.78
2022-08-23T12:44:08.407Z,98134.22
2022-08-23T12:48:12.988Z,98129.09
2022-08-23T12:52:15.241Z,98127.53
2022-08-23T12:56:31.881Z,98129.88
2022-08-23T13:00:39.716Z,98129.44
2022-08-23T13:04:43.291Z,98122.34
2022-08-23T13:08:49.988Z,98122.69
2022-08-23T13:12:52.482Z,98105.00
2022-08-23T13:16:56.594Z,98119.03
2022-08-23T13:21:18.764Z,98116.66
2022-08-23T13:25:41.586Z,98104.66
2022-08-23T13:30:03.739Z,98096.81
2022-08-23T13:34:06.205Z,98100.78
2022-08-23T13:38:08.290Z,98087.28
2022-08-23T13:42:11.749Z,98092.28
2022-08-23T13:46:22.334Z,98082.84
2022-08-23T13:50:31.983Z,98099.66
2022-08-23T13:54:35.731Z,98094.25
2022-08-23T13:58:38.563Z,98100.31
2022-08-23T14:02:40.855Z,98097.63
2022-08-23T14:06:48.806Z,98089.94
2022-08-23T14:10:52.995Z,98091.00
2022-08-23T14:15:01.174Z,98098.31
2022-08-23T14:23:27.029Z,98087.69
2022-08-23T14:27:29.169Z,98095.50
2022-08-23T14:31:31.765Z,98098.59
2022-08-23T14:35:33.835Z,98094.72
2022-08-23T14:39:35.917Z,98097.81
2022-08-23T14:43:38.347Z,98093.94
2022-08-23T14:47:41.455Z,98104.59
2022-08-23T14:51:46.394Z,98095.78
2022-08-23T14:56:12.313Z,98086.84
2022-08-23T15:00:16.286Z,98082.13
2022-08-23T15:04:22.891Z,98088.84
2022-08-23T15:08:25.126Z,98081.34
2022-08-23T15:16:50.346Z,98107.97
2022-08-23T15:20:52.605Z,98098.94
2022-08-23T15:24:55.726Z,98103.59
2022-08-23T15:28:58.851Z,98101.50
2022-08-23T15:33:02.076Z,98101.00
2022-08-23T15:37:05.214Z,98111.94
2022-08-23T15:41:07.423Z,98113.09
2022-08-23T15:45:11.383Z,98118.13
2022-08-23T15:49:17.174Z,98115.88
2022-08-23T15:53:22.207Z,98123.50
2022-08-23T15:57:28.172Z,98133.31
2022-08-23T16:01:33.734Z,98130.00
2022-08-23T16:05:37.594Z,98131.03
2022-08-23T16:09:41.053Z,98132.31
2022-08-23T16:13:45.103Z,98123.69
2022-08-23T16:17:47.358Z,98125.72
2022-08-23T16:21:51.787Z,98131.69
2022-08-23T16:25:56.824Z,98128.84
2022-08-23T16:30:05.140Z,98132.59
2022-08-23T16:34:18.142Z,98135.16
2022-08-23T16:38:20.209Z,98138.59
2022-08-23T16:42:22.423Z,98138.31
2022-08-23T16:46:24.810Z,98152.53
2022-08-23T16:50:27.686Z,98141.59
2022-08-23T16:54:29.915Z,98149.47
2022-08-23T16:58:32.427Z,98157.47
2022-08-23T17:02:36.195Z,98153.88
2022-08-23T17:06:38.911Z,98155.94
2022-08-23T17:10:41.430Z,98148.56
2022-08-23T17:14:45.429Z,98154.63
2022-08-23T17:18:48.084Z,98158.28
2022-08-23T17:22:57.104Z,98161.94
2022-08-23T17:27:09.044Z,98172.97
2022-08-23T17:31:21.704Z,98182.13
2022-08-23T17:35:42.211Z,98191.53
2022-08-23T17:39:48.608Z,98190.13
2022-08-23T17:43:51.299Z,98183.59
2022-08-23T17:47:54.578Z,98185.22
2022-08-23T17:51:56.716Z,98196.44
2022-08-23T17:55:59.240Z,98203.81
2022-08-23T18:00:01.560Z,98203.28
2022-08-23T18:04:07.633Z,98216.66
2022-08-23T18:08:09.906Z,98219.72
2022-08-23T18:12:12.192Z,98227.88
2022-08-23T18:16:15.046Z,98232.13
2022-08-23T18:20:17.212Z,98247.59
2022-08-23T18:24:19.794Z,98245.28
2022-08-23T18:28:21.857Z,98252.47
2022-08-23T18:32:23.948Z,98264.66
2022-08-23T18:36:27.882Z,98264.41
2022-08-23T18:40:30.869Z,98279.31
2022-08-23T18:44:33.530Z,98280.44
2022-08-23T18:48:36.795Z,98300.22
2022-08-23T18:52:39.305Z,98301.13
2022-08-23T18:56:41.914Z,98304.66
2022-08-23T19:00:46.989Z,98308.06
2022-08-23T19:04:56.173Z,98310.59
2022-08-23T19:09:01.097Z,98329.00
2022-08-23T19:13:05.426Z,98325.78
2022-08-23T19:17:10.985Z,98324.00
2022-08-23T19:21:16.354Z,98333.19
2022-08-23T19:25:18.688Z,98342.28
2022-08-23T19:29:21.812Z,98346.03
2022-08-23T19:33:23.911Z,98346.19
2022-08-23T19:37:34.769Z,98354.13
2022-08-23T19:41:51.740Z,98365.22
2022-08-23T19:45:53.943Z,98374.03
2022-08-23T19:49:56.679Z,98374.75
2022-08-23T19:54:06.937Z,98378.16
2022-08-23T19:58:14.283Z,98382.47
2022-08-23T20:02:16.973Z,98385.31
2022-08-23T20:06:19.384Z,98388.38
2022-08-23T20:10:22.056Z,98395.06
2022-08-23T20:14:26.164Z,98390.47
2022-08-23T20:18:28.614Z,98387.03
2022-08-23T20:22:49.358Z,98389.97
2022-08-23T20:26:52.373Z,98390.13
2022-08-23T20:30:54.550Z,98394.06
2022-08-23T20:34:56.711Z,98405.09
2022-08-23T20:39:02.009Z,98395.84
2022-08-23T20:43:05.595Z,98404.63
2022-08-23T20:47:08.001Z,98405.09
2022-08-23T20:51:10.428Z,98409.03
2022-08-23T20:55:13.826Z,98420.44
2022-08-23T20:59:16.082Z,98422.81
2022-08-23T21:03:18.711Z,98412.19
2022-08-23T21:07:21.225Z,98413.47
2022-08-23T21:11:44.626Z,98421.22
2022-08-23T21:15:56.686Z,98423.56
2022-08-23T21:20:13.799Z,98418.34
2022-08-23T21:24:36.270Z,98428.41
2022-08-23T21:28:52.793Z,98430.69
2022-08-23T21:32:55.105Z,98424.31
2022-08-23T21:36:58.228Z,98421.84
2022-08-23T21:41:04.875Z,98422.81
2022-08-23T21:45:09.112Z,98430.97
2022-08-23T21:49:12.698Z,98438.94
2022-08-23T21:57:34.026Z,98443.81
2022-08-23T22:01:42.034Z,98441.09
2022-08-23T22:05:48.795Z,98441.41
2022-08-23T22:09:52.839Z,98438.50
2022-08-23T22:13:55.774Z,98445.84
2022-08-23T22:18:00.724Z,98445.06
2022-08-23T22:22:04.289Z,98436.16
2022-08-23T22:26:07.345Z,98439.09
2022-08-23T22:30:11.242Z,98444.22
2022-08-23T22:34:13.637Z,98445.63
2022-08-23T22:38:17.516Z,98440.75
2022-08-23T22:42:19.916Z,98445.50
2022-08-23T22:46:23.059Z,98443.94
2022-08-23T22:50:25.673Z,98439.66
2022-08-23T22:54:27.810Z,98442.53
2022-08-23T22:58:29.933Z,98444.25
2022-08-23T23:02:32.018Z,98440.31
2022-08-23T23:06:34.320Z,98434.78
2022-08-23T23:10:40.843Z,98444.63
2022-08-23T23:14:46.701Z,98442.38
2022-08-23T23:19:13.558Z,98433.97
2022-08-23T23:23:22.199Z,98440.16
2022-08-23T23:27:24.330Z,98427.94
2022-08-23T23:31:26.516Z,98436.34
2022-08-23T23:35:29.872Z,98430.44
2022-08-23T23:40:01.756Z,98439.03
2022-08-23T23:44:07.693Z,98431.28
2022-08-23T23:48:10.084Z,98429.97
2022-08-23T23:52:12.243Z,98423.31
2022-08-23T23:56:16.409Z,98426.66
